• Join FlightAware (Why Join?)
  • Login
  • US Flag 
10:44PM EDT


 

Airport Tracker/Info


-or-


 

Live Flight TrackerFlight Track Log ✈ TAM3745 ✈ 13-Sep-2013 ✈ SBSR / SJP - SBSP / CGH

Flight Track Log - Related Links

Times and Time Zones

All times are in EDT time to prevent confusion due to time zone crossing. See the TAM3745 flight status page for this flight to view local times or setup timezone preferences in your user account.

Time Position Orientation Groundspeed Altitude Reporting Facility
EDT Latitude Longitude Course Direction KTS MPH feet Rate Location/Type
12:52PM -20.8030 -49.3860 57° Northeast 140 161 2,900  Level FlightAware
12:53PM -20.7930 -49.3580 69° East 178 205 3,300 600 Climbing FlightAware
12:53PM -20.7910 -49.3540 62° Northeast 187 215 3,400 1,980 Climbing FlightAware
12:54PM -20.7480 -49.2980 51° Northeast 227 261 5,700 2,460 Climbing FlightAware
12:55PM -20.7330 -49.2300 77° East 241 277 8,800 2,580 Climbing FlightAware
12:56PM -20.7440 -49.2180 134° Southeast 257 296 9,200 1,200 Climbing FlightAware
12:56PM -20.7490 -49.2120 132° Southeast 261 300 9,300 660 Climbing FlightAware
12:56PM -20.7580 -49.2030 137° Southeast 280 322 9,400 2,760 Climbing FlightAware
12:57PM -20.8070 -49.1560 138° Southeast 279 321 11,900 3,000 Climbing FlightAware
12:57PM -20.8110 -49.1510 131° Southeast 279 321 12,200 1,680 Climbing FlightAware
12:57PM -20.8460 -49.1170 138° Southeast 299 344 13,100 1,500 Climbing FlightAware
12:58PM -20.8620 -49.1000 135° Southeast 316 364 13,400 960 Climbing FlightAware
12:58PM -20.8800 -49.0820 137° Southeast 334 384 13,600 960 Climbing FlightAware
12:58PM -20.8900 -49.0730 140° Southeast 341 392 13,800 1,560 Climbing FlightAware
12:58PM -20.8990 -49.0630 134° Southeast 348 400 14,000 1,080 Climbing FlightAware
12:58PM -20.9040 -49.0590 143° Southeast 350 403 14,100 1,500 Climbing FlightAware
12:58PM -20.9180 -49.0440 135° Southeast 356 410 14,400 2,580 Climbing FlightAware
12:58PM -20.9280 -49.0340 137° Southeast 357 411 14,800 2,700 Climbing FlightAware
12:59PM -20.9480 -49.0150 138° Southeast 355 409 15,500 2,040 Climbing FlightAware
12:59PM -20.9660 -48.9960 135° Southeast 358 412 15,900 1,200 Climbing FlightAware
12:59PM -20.9780 -48.9850 139° Southeast 365 420 16,100 1,680 Climbing FlightAware
12:59PM -20.9930 -48.9700 137° Southeast 367 422 16,500 2,220 Climbing FlightAware
01:00PM -21.0120 -48.9510 137° Southeast 369 425 17,000 1,980 Climbing FlightAware
01:00PM -21.0230 -48.9400 137° Southeast 369 425 17,300 1,680 Climbing FlightAware
01:02PM -21.1579 -48.8243 141° Southeast  Level Estimated
01:02PM -21.1750 -48.7870 141° Southeast 387 445 20,700  Level FlightAware
01:03PM -21.2830 -48.6780 137° Southeast 403 464 22,700 1,500 Climbing FlightAware
01:03PM -21.3020 -48.6590 137° Southeast 401 461 23,100 1,140 Climbing FlightAware
01:06PM -21.4374 -48.5446 142° Southeast  Level Estimated
01:07PM -21.4995 -48.4922 142° Southeast  Level Estimated
01:07PM -21.5900 -48.3670 142° Southeast 438 504 26,900  Level FlightAware
01:07PM -21.6200 -48.3360 136° Southeast 442 509 27,000 60 Climbing FlightAware
01:08PM -21.6680 -48.2880 137° Southeast 441 507 27,000  Level FlightAware
01:08PM -21.7040 -48.2520 137° Southeast 443 510 27,000  Level FlightAware
01:09PM -21.8050 -48.1490 137° Southeast 443 510 27,000  Level FlightAware
01:09PM -21.8180 -48.1380 142° Southeast 445 512 27,000  Level FlightAware
01:10PM -21.9320 -48.0770 154° Southeast 445 512 27,000  Level FlightAware
01:12PM -22.0860 -47.9950 154° Southeast 444 511 27,000  Level FlightAware
01:12PM -22.1080 -47.9830 153° Southeast 445 512 27,000  Level FlightAware
01:13PM -22.2850 -47.8890 154° Southeast 447 514 27,000  Level FlightAware
01:15PM -22.4240 -47.8150 154° Southeast 447 514 27,000 -240 Level FlightAware
01:16PM -22.5160 -47.7660 154° Southeast 421 484 26,600 -960 Descending FlightAware
01:17PM -22.6160 -47.7130 154° Southeast 393 452 25,300 -1,620 Descending FlightAware
01:17PM -22.6460 -47.6960 152° Southeast 394 453 24,500 -2,760 Descending FlightAware
01:17PM -22.6900 -47.6670 149° Southeast 395 455 23,200 -2,280 Descending FlightAware
01:19PM -22.8550 -47.5150 135° Southeast 380 437 19,000 -2,220 Descending FlightAware
01:20PM -22.8347 -47.5121 135° Southeast  Level Estimated
01:21PM -22.9620 -47.4150 139° Southeast 390 449 15,800  Level FlightAware
01:21PM -22.9770 -47.4010 139° Southeast 385 443 15,500 -1,200 Descending FlightAware
01:22PM -23.0350 -47.3470 139° Southeast 350 403 14,700 -900 Descending FlightAware
01:23PM -23.1470 -47.3470 180° South 318 366 13,700 -720 Descending FlightAware
01:24PM -23.2280 -47.3650 192° South 282 325 13,200 -600 Descending FlightAware
01:24PM -23.2350 -47.3660 187° South 277 319 13,100 -2,100 Descending FlightAware
01:25PM -23.2900 -47.3210 143° Southeast 288 331 11,100 -1,620 Descending FlightAware
01:26PM -23.3240 -47.2530 119° Southeast 271 312 10,200 -1,020 Descending FlightAware
01:26PM -23.3310 -47.2380 117° Southeast 268 308 10,000 -1,020 Descending FlightAware
01:26PM -23.3490 -47.2030 119° Southeast 265 305 9,500 -1,140 Descending FlightAware
01:27PM -23.3540 -47.1930 119° Southeast 265 305 9,300 -780 Descending FlightAware
01:27PM -23.3580 -47.1840 116° Southeast 265 305 9,300 -480 Level FlightAware
01:27PM -23.3760 -47.1490 119° Southeast 250 288 9,000 -180 Descending FlightAware
01:29PM -23.4260 -47.0490 119° Southeast 239 275 9,000  Level FlightAware
01:29PM -23.4360 -47.0270 116° Southeast 239 275 9,000  Level FlightAware
01:29PM -23.4400 -47.0130 107° East 238 274 9,000 -480 Level FlightAware
01:31PM -23.3850 -46.9040 61° Northeast 186 214 8,000 -660 Descending FlightAware
01:31PM -23.3810 -46.8970 58° Northeast 186 214 7,700 -1,920 Descending FlightAware
01:32PM -23.3780 -46.8910 61° Northeast 188 216 7,500 -1,320 Descending FlightAware
01:32PM -23.3690 -46.8750 59° Northeast 188 216 7,100 -900 Descending FlightAware
01:34PM -23.4891 -46.7727 142° Southeast  Level Estimated
01:34PM -23.4130 -46.8040 142° Southeast 186 214 5,800  Level FlightAware
01:34PM -23.4240 -46.7960 146° Southeast 188 216 5,800  Level FlightAware
01:34PM -23.4320 -46.7910 150° Southeast 189 217 5,800  Level FlightAware
01:34PM -23.4550 -46.7750 147° Southeast 181 208 5,800  Level FlightAware
01:35PM -23.4620 -46.7700 147° Southeast 183 211 5,800 -540 Level FlightAware
01:35PM -23.4800 -46.7580 149° Southeast 188 216 5,500 -900 Descending FlightAware
01:36PM -23.5210 -46.7300 148° Southeast 178 205 4,600 -960 Descending FlightAware
01:36PM -23.5260 -46.7260 144° Southeast 177 204 4,500 -780 Descending FlightAware
01:37PM -23.5660 -46.6990 148° Southeast 146 168 3,700 -840 Descending FlightAware
01:38PM -23.5810 -46.6880 146° Southeast 145 167 3,300 -780 Descending FlightAware
01:38PM -23.5850 -46.6860 155° Southeast 147 169 3,300 -600 Level FlightAware
01:38PM -23.5920 -46.6810 147° Southeast 149 171 3,100 -1,080 Descending FlightAware
01:38PM -23.5940 -46.6790 137° Southeast 147 169 3,000 -780 Descending FlightAware
01:39PM -23.6100 -46.6680 148° Southeast 145 167 2,700 -660 Descending FlightAware
01:39PM -23.6230 -46.6590 148° Southeast 137 158 2,400 -660 Descending FlightAware
01:41PM -23.6280 -46.6570 160° South -1,440 Descending FlightAware